KEYW/EYW METAR and TAF weather

Enter ICAO airport designator
Station Type Date Time Source
KEYW METAR 2022/05/24 11:53 UTC NOAA

KEYW 241153Z 13020G28KT 10SM SCT021 BKN031 BKN100 27/24 A2999 RMK AO2 PK WND 13034/1126 RAB28E49 SLP156 P0032 60032 70041 T02670244 10278 20244 53010


Station Type Date Time Source
KEYW Decoded METAR 2022/05/24 11:53 UTC NOAA

KEY WEST INTERNATIONAL AIRPORT , FL, United States (KEYW) 24-33N 81-46W 5M
May 24, 2022 - 07:53 AM EDT / 2022.05.24 1153 UTC
Wind: from the SE (130 degrees) at 23 MPH (20 KT) gusting to 32 MPH (28 KT):0
Visibility: 10 mile(s):0
Sky conditions: mostly cloudy
Precipitation last hour: 0.32 inches
Temperature: 80.1 F (26.7 C)
Dew Point: 75.9 F (24.4 C)
Relative Humidity: 87%
Pressure (altimeter): 29.99 in. Hg (1015 hPa)
Pressure tendency: 0.03 inches (1.0 hPa) higher than three hours ago
ob: KEYW 241153Z 13020G28KT 10SM SCT021 BKN031 BKN100 27/24 A2999 RMK AO2 PK WND 13034/1126 RAB28E49 SLP156 P0032 60032 70041 T02670244 10278 20244 53010
cycle: 12

Station Type Date Time Source
KEYW TAF 2022/05/24 12:39 UTC NOAA

TAF KEYW 241137Z 2412/2512 12015G23KT P6SM VCSH SCT025 SCT060
TEMPO 2412/2413 3SM RA BKN020
FM242100 11015G22KT P6SM SCT025

Example: see airport list